Decoded Metar for KHXD (HILTON HEAD in SC, USA) (IATA:HXD) | Meteo·Mobile Aviation Weather
aviador You're here:

KHXD Decoded Metar

HILTON HEAD in SC, USA
Report Time2019-05-25 22:50:00
UTC Time2019-05-25 22:53:09
Flight Rules vfr VFR
Wind180° at 07 Gusting to 13 kt
W.Decomp.*RWY 21: 6.4 kt HW 2.7 kt LCW
Visibility9999 m
Phenomena:N/A
Clouds:N/A
Expected CloudBase > 3,200 ft AGL from Temp-Dew spread
CeilingNone
Temp31°C (ISA +16)
Dew Point23°C (62% RH)
Heat Index35.4°C
QNH1019 hPa
Density Alt2,021 ft
Elevation20 ft
Report Wrong Elevation
Raw Report
KHXD 252250Z 18007G13KT 10SM CLR 31/23 A3009=

Extra information for KHXD:More info

Metar Taf Metar & Taf Last 4 Metars F.Rules Stats Wind Profile Meteogram Temp Stats Airport Information Weather charts Add Link Nearby VenuesMetar ALERT Operation Metar Decoded Social comments

AIRNAV info for KHXD